Metar Aviation Weather Data EGNJ

14°C Temp
12°C Dewpoint
% Humidity
Temperature
5 KM/H
3 MPH
3 KTS
10°
Due North

Wind Speed
Partly Cloudy
Conditions
Pressure 1010.92 (hPa) - 29.85 (in)
Visibility 5.0 (mi) - 8 (km)

Current Conditions
EGNJ
Metar :EGNJ 191820Z 01003KT 8000 FEW030 14/12 Q1011
Sun 19th May 19:20 pm

  Metar Aviation API Data Provided by https://www.checkwx.com/ PHP scripts by weather34.com ©2019